Time,TemperatureF,DewpointF,PressureIn,WindDirection,WindDirectionDegrees,WindSpeedMPH,WindSpeedGustMPH,Humidity,HourlyPrecipIn,Conditions,Clouds,dailyrainin,SoftwareType,DateUTC
2013-10-08 00:05:00,60.6,57.7,29.94,NW,318,1.0,7.0,90,0.00,,,0.99,Wunderground v.1.15,2013-10-08 04:05:00,
2013-10-08 00:10:00,60.6,58.0,29.94,NW,322,1.0,2.0,91,0.00,,,0.99,Wunderground v.1.15,2013-10-08 04:10:00,
2013-10-08 00:19:00,60.4,57.5,29.94,NW,311,1.0,1.0,90,0.00,,,0.99,Wunderground v.1.15,2013-10-08 04:19:00,
2013-10-08 00:25:00,60.2,56.9,29.94,NW,310,1.0,2.0,89,0.00,,,0.99,Wunderground v.1.15,2013-10-08 04:25:00,
2013-10-08 00:30:00,60.2,57.3,29.94,North,352,1.0,2.0,90,0.00,,,0.99,Wunderground v.1.15,2013-10-08 04:30:00,
2013-10-08 00:35:00,60.0,56.7,29.94,NW,326,1.0,2.0,89,0.00,,,0.99,Wunderground v.1.15,2013-10-08 04:35:00,
2013-10-08 00:40:00,59.9,56.0,29.94,NW,325,1.0,1.0,87,0.00,,,0.99,Wunderground v.1.15,2013-10-08 04:40:00,
2013-10-08 00:50:00,59.8,56.6,29.94,North,352,1.0,2.0,89,0.00,,,0.99,Wunderground v.1.15,2013-10-08 04:50:00,
2013-10-08 00:55:00,59.7,56.1,29.94,NNW,339,1.0,2.0,88,0.00,,,0.99,Wunderground v.1.15,2013-10-08 04:55:00,
2013-10-08 01:00:00,59.6,55.7,29.94,NNW,346,1.0,1.0,87,0.00,,,0.99,Wunderground v.1.15,2013-10-08 05:00:00,
2013-10-08 01:05:00,59.6,55.4,29.94,NNW,345,1.0,2.0,86,0.00,,,0.99,Wunderground v.1.15,2013-10-08 05:05:00,
2013-10-08 01:10:00,59.5,55.3,29.94,North,359,1.0,2.0,86,0.00,,,0.99,Wunderground v.1.15,2013-10-08 05:10:00,
2013-10-08 01:20:00,59.4,54.9,29.94,WNW,290,1.0,1.0,85,0.00,,,0.99,Wunderground v.1.15,2013-10-08 05:20:00,
2013-10-08 01:25:00,59.4,55.8,29.94,WSW,257,1.0,2.0,88,0.00,,,0.99,Wunderground v.1.15,2013-10-08 05:25:00,
2013-10-08 01:30:00,59.3,55.4,29.94,NNW,339,1.0,2.0,87,0.00,,,0.99,Wunderground v.1.15,2013-10-08 05:30:00,
2013-10-08 01:35:00,59.2,55.3,29.94,NW,312,1.0,2.0,87,0.00,,,0.99,Wunderground v.1.15,2013-10-08 05:35:00,
2013-10-08 01:45:00,59.2,55.3,29.94,NNW,328,1.0,2.0,87,0.00,,,0.99,Wunderground v.1.15,2013-10-08 05:45:00,
2013-10-08 01:50:00,59.2,55.6,29.94,NNW,330,1.0,2.0,88,0.00,,,0.00,Wunderground v.1.15,2013-10-08 05:50:00,
2013-10-08 01:55:00,59.2,56.0,29.94,ESE,105,1.0,2.0,89,0.00,,,0.00,Wunderground v.1.15,2013-10-08 05:55:00,
2013-10-08 02:00:00,59.1,55.5,29.95,North,7,2.0,2.0,88,0.00,,,0.00,Wunderground v.1.15,2013-10-08 06:00:00,
2013-10-08 02:05:00,59.1,55.5,29.95,NW,321,1.0,2.0,88,0.00,,,0.00,Wunderground v.1.15,2013-10-08 06:05:00,
2013-10-08 02:15:00,59.1,55.9,29.95,North,0,1.0,2.0,89,0.00,,,0.00,Wunderground v.1.15,2013-10-08 06:15:00,
2013-10-08 02:20:00,59.1,55.5,29.95,North,0,1.0,2.0,88,0.00,,,0.00,Wunderground v.1.15,2013-10-08 06:20:00,
2013-10-08 02:25:00,59.1,56.2,29.95,WNW,287,1.0,2.0,90,0.00,,,0.00,Wunderground v.1.15,2013-10-08 06:25:00,
2013-10-08 02:30:00,59.0,55.8,29.97,North,354,1.0,2.0,89,0.00,,,0.00,Wunderground v.1.15,2013-10-08 06:30:00,
2013-10-08 02:39:00,59.0,56.1,29.97,NW,319,1.0,2.0,90,0.00,,,0.00,Wunderground v.1.15,2013-10-08 06:39:00,
2013-10-08 02:45:00,59.0,55.8,29.97,ENE,72,0.0,2.0,89,0.00,,,0.00,Wunderground v.1.15,2013-10-08 06:45:00,
2013-10-08 02:50:00,59.0,55.8,29.97,ESE,103,1.0,1.0,89,0.00,,,0.00,Wunderground v.1.15,2013-10-08 06:50:00,
2013-10-08 02:55:00,58.9,55.7,29.97,SW,234,1.0,2.0,89,0.00,,,0.00,Wunderground v.1.15,2013-10-08 06:55:00,
2013-10-08 03:00:00,59.0,55.4,29.97,West,273,1.0,1.0,88,0.00,,,0.00,Wunderground v.1.15,2013-10-08 07:00:00,
2013-10-08 03:10:00,58.9,56.0,29.97,SE,129,0.0,2.0,90,0.00,,,0.00,Wunderground v.1.15,2013-10-08 07:10:00,
2013-10-08 03:15:00,58.9,56.0,29.98,SSE,155,0.0,2.0,90,0.00,,,0.00,Wunderground v.1.15,2013-10-08 07:15:00,
2013-10-08 03:20:00,58.9,56.3,29.98,WNW,284,1.0,1.0,91,0.00,,,0.00,Wunderground v.1.15,2013-10-08 07:20:00,
2013-10-08 03:25:00,58.8,55.9,29.98,West,275,0.0,2.0,90,0.00,,,0.00,Wunderground v.1.15,2013-10-08 07:25:00,
2013-10-08 03:30:00,58.8,55.6,29.98,NW,321,0.0,2.0,89,0.00,,,0.00,Wunderground v.1.15,2013-10-08 07:30:00,
2013-10-08 03:40:00,58.7,55.8,29.98,WNW,290,0.0,2.0,90,0.00,,,0.00,Wunderground v.1.15,2013-10-08 07:40:00,
2013-10-08 03:45:00,58.7,55.8,29.99,ENE,63,0.0,2.0,90,0.00,,,0.00,Wunderground v.1.15,2013-10-08 07:45:00,
2013-10-08 03:50:00,58.6,55.4,29.99,ENE,62,0.0,2.0,89,0.00,,,0.00,Wunderground v.1.15,2013-10-08 07:50:00,
2013-10-08 03:55:00,58.6,55.7,29.99,WNW,294,0.0,2.0,90,0.00,,,0.00,Wunderground v.1.15,2013-10-08 07:55:00,
2013-10-08 04:04:00,58.5,55.6,29.98,East,96,1.0,2.0,90,0.00,,,0.00,Wunderground v.1.15,2013-10-08 08:04:00,
2013-10-08 04:10:00,58.5,55.3,29.98,SSW,212,1.0,1.0,89,0.00,,,0.00,Wunderground v.1.15,2013-10-08 08:10:00,
2013-10-08 04:15:00,58.4,54.9,29.98,South,191,1.0,2.0,88,0.00,,,0.00,Wunderground v.1.15,2013-10-08 08:15:00,
2013-10-08 04:20:00,58.3,55.1,29.98,SW,214,1.0,2.0,89,0.00,,,0.00,Wunderground v.1.15,2013-10-08 08:20:00,
2013-10-08 04:25:00,58.3,54.8,29.98,North,1,0.0,5.0,88,0.00,,,0.00,Wunderground v.1.15,2013-10-08 08:25:00,
2013-10-08 04:34:00,58.2,54.3,29.99,ENE,58,1.0,2.0,87,0.00,,,0.00,Wunderground v.1.15,2013-10-08 08:34:00,
2013-10-08 04:40:00,58.2,54.7,29.99,NNE,28,1.0,2.0,88,0.00,,,0.00,Wunderground v.1.15,2013-10-08 08:40:00,
2013-10-08 04:45:00,58.1,54.6,29.99,North,359,1.0,2.0,88,0.00,,,0.00,Wunderground v.1.15,2013-10-08 08:45:00,
2013-10-08 04:50:00,58.0,54.5,29.99,NNW,329,1.0,1.0,88,0.00,,,0.00,Wunderground v.1.15,2013-10-08 08:50:00,
2013-10-08 05:00:00,58.0,54.2,30.00,NW,306,0.0,2.0,87,0.00,,,0.00,Wunderground v.1.15,2013-10-08 09:00:00,
2013-10-08 05:05:00,57.9,54.7,30.00,NW,319,0.0,2.0,89,0.00,,,0.00,Wunderground v.1.15,2013-10-08 09:05:00,
2013-10-08 05:10:00,57.9,53.7,30.00,North,359,0.0,2.0,86,0.00,,,0.00,Wunderground v.1.15,2013-10-08 09:10:00,
2013-10-08 05:15:00,57.8,54.3,30.00,North,0,1.0,2.0,88,0.00,,,0.00,Wunderground v.1.15,2013-10-08 09:15:00,
2013-10-08 05:20:00,57.8,54.0,30.00,NNE,30,1.0,1.0,87,0.00,,,0.00,Wunderground v.1.15,2013-10-08 09:20:00,
2013-10-08 05:30:00,57.7,53.9,30.01,NNE,18,1.0,2.0,87,0.00,,,0.00,Wunderground v.1.15,2013-10-08 09:30:00,
2013-10-08 05:35:00,57.6,53.8,30.01,WSW,255,0.0,2.0,87,0.00,,,0.00,Wunderground v.1.15,2013-10-08 09:35:00,
2013-10-08 05:40:00,57.5,53.3,30.01,NNW,335,0.0,2.0,86,0.00,,,0.00,Wunderground v.1.15,2013-10-08 09:40:00,
2013-10-08 05:45:00,57.5,53.7,30.01,NNW,335,0.0,2.0,87,0.00,,,0.00,Wunderground v.1.15,2013-10-08 09:45:00,
2013-10-08 05:50:00,57.5,53.7,30.01,NNW,335,0.0,2.0,87,0.00,,,0.00,Wunderground v.1.15,2013-10-08 09:50:00,
2013-10-08 06:00:00,57.3,53.5,30.02,NW,318,0.0,2.0,87,0.00,,,0.00,Wunderground v.1.15,2013-10-08 10:00:00,
2013-10-08 06:05:00,57.3,53.1,30.02,NNW,328,0.0,2.0,86,0.00,,,0.00,Wunderground v.1.15,2013-10-08 10:05:00,
2013-10-08 06:10:00,57.2,53.0,30.02,NNW,339,0.0,2.0,86,0.00,,,0.00,Wunderground v.1.15,2013-10-08 10:10:00,
2013-10-08 06:15:00,57.2,52.7,30.02,ESE,120,0.0,2.0,85,0.00,,,0.00,Wunderground v.1.15,2013-10-08 10:15:00,
2013-10-08 06:20:00,57.1,52.6,30.02,North,357,0.0,2.0,85,0.00,,,0.00,Wunderground v.1.15,2013-10-08 10:20:00,
2013-10-08 06:30:00,57.0,52.5,30.03,North,354,1.0,2.0,85,0.00,,,0.00,Wunderground v.1.15,2013-10-08 10:30:00,
2013-10-08 06:35:00,56.9,52.4,30.03,North,1,1.0,2.0,85,0.00,,,0.00,Wunderground v.1.15,2013-10-08 10:35:00,
2013-10-08 06:40:00,56.9,52.1,30.03,NW,324,1.0,1.0,84,0.00,,,0.00,Wunderground v.1.15,2013-10-08 10:40:00,
2013-10-08 06:45:00,56.8,51.0,30.04,West,271,1.0,2.0,81,0.00,,,0.00,Wunderground v.1.15,2013-10-08 10:45:00,
2013-10-08 06:54:00,56.7,51.9,30.04,NE,35,1.0,2.0,84,0.00,,,0.00,Wunderground v.1.15,2013-10-08 10:54:00,
2013-10-08 07:00:00,56.7,52.2,30.04,WNW,303,1.0,2.0,85,0.00,,,0.00,Wunderground v.1.15,2013-10-08 11:00:00,
2013-10-08 07:05:00,56.6,52.1,30.04,SSW,200,1.0,2.0,85,0.00,,,0.00,Wunderground v.1.15,2013-10-08 11:05:00,
2013-10-08 07:10:00,56.5,51.4,30.04,North,0,1.0,2.0,83,0.00,,,0.00,Wunderground v.1.15,2013-10-08 11:10:00,
2013-10-08 07:19:00,56.5,51.4,30.05,North,356,1.0,2.0,83,0.00,,,0.00,Wunderground v.1.15,2013-10-08 11:19:00,
2013-10-08 07:24:00,56.4,51.0,30.05,NW,311,1.0,2.0,82,0.00,,,0.00,Wunderground v.1.15,2013-10-08 11:24:00,
2013-10-08 07:30:00,56.4,51.0,30.06,NE,41,1.0,2.0,82,0.00,,,0.00,Wunderground v.1.15,2013-10-08 11:30:00,
2013-10-08 07:35:00,56.3,51.2,30.06,SW,229,1.0,2.0,83,0.00,,,0.00,Wunderground v.1.15,2013-10-08 11:35:00,
2013-10-08 07:40:00,56.3,50.5,30.06,North,4,1.0,2.0,81,0.00,,,0.00,Wunderground v.1.15,2013-10-08 11:40:00,
2013-10-08 07:50:00,56.2,50.4,30.05,SW,236,1.0,2.0,81,0.00,,,0.00,Wunderground v.1.15,2013-10-08 11:50:00,
2013-10-08 07:55:00,56.2,50.4,30.05,NNE,27,1.0,2.0,81,0.00,,,0.00,Wunderground v.1.15,2013-10-08 11:55:00,
2013-10-08 08:00:00,56.1,50.7,30.07,NE,34,1.0,1.0,82,0.00,,,0.00,Wunderground v.1.15,2013-10-08 12:00:00,
2013-10-08 08:05:00,56.1,50.3,30.07,West,263,1.0,2.0,81,0.00,,,0.00,Wunderground v.1.15,2013-10-08 12:05:00,
2013-10-08 08:10:00,56.1,51.0,30.07,NNE,14,1.0,1.0,83,0.00,,,0.00,Wunderground v.1.15,2013-10-08 12:10:00,
2013-10-08 08:20:00,56.0,49.9,30.08,NNE,32,1.0,2.0,80,0.00,,,0.00,Wunderground v.1.15,2013-10-08 12:20:00,
2013-10-08 08:25:00,56.0,49.2,30.08,North,4,1.0,2.0,78,0.00,,,0.00,Wunderground v.1.15,2013-10-08 12:25:00,
2013-10-08 08:30:00,56.0,50.6,30.08,WNW,297,1.0,2.0,82,0.00,,,0.00,Wunderground v.1.15,2013-10-08 12:30:00,
2013-10-08 08:39:00,56.0,49.9,30.08,WNW,288,1.0,2.0,80,0.00,,,0.00,Wunderground v.1.15,2013-10-08 12:39:00,
2013-10-08 08:44:00,56.0,49.6,30.08,North,11,1.0,2.0,79,0.00,,,0.00,Wunderground v.1.15,2013-10-08 12:44:00,
2013-10-08 08:50:00,56.0,49.9,30.08,NNW,336,1.0,1.0,80,0.00,,,0.00,Wunderground v.1.15,2013-10-08 12:50:00,
2013-10-08 08:55:00,56.1,50.0,30.08,West,262,1.0,2.0,80,0.00,,,0.00,Wunderground v.1.15,2013-10-08 12:55:00,
2013-10-08 09:00:00,56.0,49.2,30.10,NW,315,1.0,1.0,78,0.00,,,0.00,Wunderground v.1.15,2013-10-08 13:00:00,
2013-10-08 09:09:00,56.0,49.6,30.10,West,260,1.0,1.0,79,0.00,,,0.00,Wunderground v.1.15,2013-10-08 13:09:00,
2013-10-08 09:15:00,56.0,49.9,30.11,ESE,121,1.0,2.0,80,0.00,,,0.00,Wunderground v.1.15,2013-10-08 13:15:00,
2013-10-08 09:20:00,55.9,49.8,30.11,NW,323,1.0,1.0,80,0.00,,,0.00,Wunderground v.1.15,2013-10-08 13:20:00,
2013-10-08 09:25:00,55.9,49.8,30.11,West,276,1.0,2.0,80,0.00,,,0.00,Wunderground v.1.15,2013-10-08 13:25:00,
2013-10-08 09:30:00,55.9,49.8,30.11,SSE,160,1.0,2.0,80,0.00,,,0.00,Wunderground v.1.15,2013-10-08 13:30:00,
2013-10-08 09:40:00,56.2,50.4,30.11,ENE,58,1.0,2.0,81,0.00,,,0.00,Wunderground v.1.15,2013-10-08 13:40:00,
2013-10-08 09:45:00,56.6,50.5,30.11,NNW,348,1.0,2.0,80,0.00,,,0.00,Wunderground v.1.15,2013-10-08 13:45:00,
2013-10-08 09:50:00,56.8,50.0,30.11,NW,326,1.0,2.0,78,0.00,,,0.00,Wunderground v.1.15,2013-10-08 13:50:00,
2013-10-08 09:55:00,57.0,50.5,30.11,NNW,328,1.0,2.0,79,0.00,,,0.00,Wunderground v.1.15,2013-10-08 13:55:00,
2013-10-08 10:00:00,57.0,50.5,30.12,NW,321,1.0,3.0,79,0.00,,,0.00,Wunderground v.1.15,2013-10-08 14:00:00,
2013-10-08 10:10:00,56.9,50.1,30.12,SSW,203,2.0,2.0,78,0.00,,,0.00,Wunderground v.1.15,2013-10-08 14:10:00,
2013-10-08 10:15:00,56.8,50.0,30.12,ESE,113,2.0,2.0,78,0.00,,,0.00,Wunderground v.1.15,2013-10-08 14:15:00,
2013-10-08 10:20:00,56.8,50.0,30.12,NNW,336,1.0,3.0,78,0.00,,,0.00,Wunderground v.1.15,2013-10-08 14:20:00,
2013-10-08 10:25:00,56.8,50.4,30.12,East,101,1.0,3.0,79,0.00,,,0.00,Wunderground v.1.15,2013-10-08 14:25:00,
2013-10-08 10:34:00,56.9,50.5,30.13,NW,321,1.0,2.0,79,0.00,,,0.00,Wunderground v.1.15,2013-10-08 14:34:00,
2013-10-08 10:40:00,57.0,50.5,30.13,NW,307,1.0,2.0,79,0.00,,,0.00,Wunderground v.1.15,2013-10-08 14:40:00,
2013-10-08 10:45:00,57.1,50.0,30.12,WNW,303,1.0,2.0,77,0.00,,,0.00,Wunderground v.1.15,2013-10-08 14:45:00,
2013-10-08 10:50:00,57.2,50.4,30.12,North,359,1.0,3.0,78,0.00,,,0.00,Wunderground v.1.15,2013-10-08 14:50:00,
2013-10-08 10:59:00,57.3,50.8,30.12,NNW,328,1.0,2.0,79,0.00,,,0.00,Wunderground v.1.15,2013-10-08 14:59:00,
2013-10-08 11:04:00,57.4,50.6,30.12,SSW,192,1.0,2.0,78,0.00,,,0.00,Wunderground v.1.15,2013-10-08 15:04:00,
2013-10-08 11:10:00,57.5,50.3,30.12,NW,320,2.0,2.0,77,0.00,,,0.00,Wunderground v.1.15,2013-10-08 15:10:00,
2013-10-08 11:15:00,57.6,51.5,30.11,NNW,341,1.0,2.0,80,0.00,,,0.00,Wunderground v.1.15,2013-10-08 15:15:00,
2013-10-08 11:20:00,57.8,50.6,30.11,NNW,348,1.0,2.0,77,0.00,,,0.00,Wunderground v.1.15,2013-10-08 15:20:00,
2013-10-08 11:30:00,58.2,52.1,30.11,WNW,302,0.0,2.0,80,0.00,,,0.00,Wunderground v.1.15,2013-10-08 15:30:00,
2013-10-08 11:35:00,58.5,50.6,30.11,NNE,21,1.0,2.0,75,0.00,,,0.00,Wunderground v.1.15,2013-10-08 15:35:00,
2013-10-08 11:40:00,58.8,51.6,30.11,WNW,286,1.0,1.0,77,0.00,,,0.00,Wunderground v.1.15,2013-10-08 15:40:00,
2013-10-08 11:45:00,59.0,51.4,30.12,WNW,290,1.0,2.0,76,0.00,,,0.01,Wunderground v.1.15,2013-10-08 15:45:00,
2013-10-08 11:50:00,59.1,50.8,30.12,WNW,300,1.0,1.0,74,0.00,,,0.01,Wunderground v.1.15,2013-10-08 15:50:00,
2013-10-08 12:00:00,59.3,51.4,30.13,NW,320,1.0,3.0,75,0.00,,,0.01,Wunderground v.1.15,2013-10-08 16:00:00,
2013-10-08 12:05:00,59.4,51.8,30.13,North,359,1.0,4.0,76,0.00,,,0.01,Wunderground v.1.15,2013-10-08 16:05:00,
2013-10-08 12:14:00,59.4,51.5,30.12,West,281,1.0,4.0,75,0.00,,,0.01,Wunderground v.1.15,2013-10-08 16:14:00,
2013-10-08 12:20:00,59.5,51.9,30.12,WSW,256,1.0,4.0,76,0.00,,,0.01,Wunderground v.1.15,2013-10-08 16:20:00,
2013-10-08 12:25:00,59.6,52.0,30.12,WSW,254,1.0,4.0,76,0.00,,,0.01,Wunderground v.1.15,2013-10-08 16:25:00,
2013-10-08 12:30:00,59.8,51.9,30.11,NNW,330,2.0,4.0,75,0.00,,,0.01,Wunderground v.1.15,2013-10-08 16:30:00,
2013-10-08 12:39:00,59.8,51.5,30.11,WNW,296,2.0,2.0,74,0.00,,,0.01,Wunderground v.1.15,2013-10-08 16:39:00,
2013-10-08 12:45:00,59.9,52.0,30.11,NNW,334,1.0,3.0,75,0.00,,,0.01,Wunderground v.1.15,2013-10-08 16:45:00,
2013-10-08 12:50:00,60.0,51.7,30.11,North,352,1.0,4.0,74,0.00,,,0.01,Wunderground v.1.15,2013-10-08 16:50:00,
2013-10-08 12:55:00,60.2,52.6,30.11,SSW,208,1.0,4.0,76,0.00,,,0.01,Wunderground v.1.15,2013-10-08 16:55:00,
2013-10-08 13:00:00,60.4,52.4,30.11,North,11,1.0,5.0,75,0.00,,,0.01,Wunderground v.1.15,2013-10-08 17:00:00,
2013-10-08 13:10:00,60.8,53.2,30.11,South,170,1.0,1.0,76,0.00,,,0.01,Wunderground v.1.15,2013-10-08 17:10:00,
2013-10-08 13:15:00,61.0,53.0,30.11,NE,53,1.0,4.0,75,0.00,,,0.01,Wunderground v.1.15,2013-10-08 17:15:00,
2013-10-08 13:20:00,61.2,52.1,30.11,WNW,284,1.0,4.0,72,0.00,,,0.01,Wunderground v.1.15,2013-10-08 17:20:00,
2013-10-08 13:25:00,61.3,51.4,30.11,East,84,1.0,4.0,70,0.00,,,0.01,Wunderground v.1.15,2013-10-08 17:25:00,
2013-10-08 13:30:00,61.3,51.4,30.11,NNW,348,1.0,4.0,70,0.00,,,0.01,Wunderground v.1.15,2013-10-08 17:30:00,
2013-10-08 13:40:00,61.3,52.6,30.11,East,86,1.0,4.0,73,0.00,,,0.01,Wunderground v.1.15,2013-10-08 17:40:00,
2013-10-08 13:45:00,61.3,51.8,30.10,NW,307,2.0,4.0,71,0.00,,,0.01,Wunderground v.1.15,2013-10-08 17:45:00,
2013-10-08 13:50:00,61.3,52.2,30.10,North,2,2.0,2.0,72,0.00,,,0.01,Wunderground v.1.15,2013-10-08 17:50:00,
2013-10-08 13:59:00,61.1,52.7,30.10,East,96,1.0,4.0,74,0.00,,,0.01,Wunderground v.1.15,2013-10-08 17:59:00,
2013-10-08 14:04:00,61.0,51.5,30.10,North,355,1.0,4.0,71,0.00,,,0.01,Wunderground v.1.15,2013-10-08 18:04:00,
2013-10-08 14:10:00,61.1,52.4,30.10,ENE,61,1.0,4.0,73,0.00,,,0.01,Wunderground v.1.15,2013-10-08 18:10:00,
2013-10-08 14:15:00,61.1,52.7,30.09,NNE,18,1.0,4.0,74,0.00,,,0.01,Wunderground v.1.15,2013-10-08 18:15:00,
2013-10-08 14:20:00,61.1,52.0,30.09,NW,315,1.0,4.0,72,0.00,,,0.01,Wunderground v.1.15,2013-10-08 18:20:00,
2013-10-08 14:29:00,61.1,52.4,30.08,WNW,303,1.0,1.0,73,0.00,,,0.01,Wunderground v.1.15,2013-10-08 18:29:00,
2013-10-08 14:34:00,61.1,52.4,30.08,West,277,0.0,4.0,73,0.00,,,0.01,Wunderground v.1.15,2013-10-08 18:34:00,
2013-10-08 14:40:00,61.1,53.1,30.08,NNW,339,1.0,4.0,75,0.00,,,0.01,Wunderground v.1.15,2013-10-08 18:40:00,
2013-10-08 14:45:00,61.1,53.1,30.09,West,281,1.0,4.0,75,0.00,,,0.01,Wunderground v.1.15,2013-10-08 18:45:00,
2013-10-08 14:54:00,61.1,53.1,30.09,North,10,1.0,4.0,75,0.00,,,0.01,Wunderground v.1.15,2013-10-08 18:54:00,
2013-10-08 15:00:00,61.2,53.2,30.08,North,10,0.0,4.0,75,0.00,,,0.01,Wunderground v.1.15,2013-10-08 19:00:00,
2013-10-08 15:05:00,61.2,53.2,30.08,West,264,1.0,4.0,75,0.00,,,0.01,Wunderground v.1.15,2013-10-08 19:05:00,
2013-10-08 15:10:00,61.2,53.6,30.08,SSW,193,1.0,4.0,76,0.00,,,0.01,Wunderground v.1.15,2013-10-08 19:10:00,
2013-10-08 15:15:00,61.3,53.3,30.09,NNW,332,1.0,4.0,75,0.00,,,0.01,Wunderground v.1.15,2013-10-08 19:15:00,
2013-10-08 15:24:00,61.2,53.9,30.09,North,1,1.0,4.0,77,0.00,,,0.01,Wunderground v.1.15,2013-10-08 19:24:00,
2013-10-08 15:30:00,61.1,53.1,30.10,NNE,14,1.0,1.0,75,0.00,,,0.01,Wunderground v.1.15,2013-10-08 19:30:00,
2013-10-08 15:35:00,61.1,53.1,30.10,North,11,1.0,4.0,75,0.00,,,0.01,Wunderground v.1.15,2013-10-08 19:35:00,
2013-10-08 15:40:00,61.0,53.7,30.10,ENE,76,0.0,4.0,77,0.00,,,0.01,Wunderground v.1.15,2013-10-08 19:40:00,
2013-10-08 15:49:00,60.9,54.3,30.11,SSW,212,0.0,4.0,79,0.00,,,0.01,Wunderground v.1.15,2013-10-08 19:49:00,
2013-10-08 15:55:00,60.7,54.1,30.11,North,11,1.0,4.0,79,0.00,,,0.01,Wunderground v.1.15,2013-10-08 19:55:00,
2013-10-08 16:00:00,60.5,53.3,30.10,North,359,1.0,1.0,77,0.00,,,0.01,Wunderground v.1.15,2013-10-08 20:00:00,
2013-10-08 16:05:00,60.4,53.9,30.10,WSW,257,0.0,4.0,79,0.00,,,0.01,Wunderground v.1.15,2013-10-08 20:05:00,
2013-10-08 16:10:00,60.2,54.0,30.10,West,263,0.0,4.0,80,0.00,,,0.01,Wunderground v.1.15,2013-10-08 20:10:00,
2013-10-08 16:20:00,60.0,54.2,30.10,NNW,330,0.0,4.0,81,0.00,,,0.01,Wunderground v.1.15,2013-10-08 20:20:00,
2013-10-08 16:25:00,59.9,53.7,30.10,WNW,301,0.0,4.0,80,0.00,,,0.01,Wunderground v.1.15,2013-10-08 20:25:00,
2013-10-08 16:30:00,59.8,54.0,30.10,NNW,333,0.0,4.0,81,0.00,,,0.01,Wunderground v.1.15,2013-10-08 20:30:00,
2013-10-08 16:35:00,59.6,53.8,30.10,NNW,333,0.0,4.0,81,0.00,,,0.01,Wunderground v.1.15,2013-10-08 20:35:00,
2013-10-08 16:44:00,59.5,53.7,30.10,NE,49,1.0,4.0,81,0.00,,,0.01,Wunderground v.1.15,2013-10-08 20:44:00,
2013-10-08 16:50:00,59.4,53.6,30.10,WNW,283,1.0,1.0,81,0.00,,,0.01,Wunderground v.1.15,2013-10-08 20:50:00,
2013-10-08 16:55:00,59.3,53.5,30.10,SE,142,1.0,4.0,81,0.00,,,0.01,Wunderground v.1.15,2013-10-08 20:55:00,
2013-10-08 17:00:00,59.1,53.3,30.10,NW,325,0.0,4.0,81,0.00,,,0.01,Wunderground v.1.15,2013-10-08 21:00:00,
2013-10-08 17:05:00,59.0,52.8,30.10,NW,325,0.0,4.0,80,0.00,,,0.01,Wunderground v.1.15,2013-10-08 21:05:00,
2013-10-08 17:14:00,58.7,52.5,30.11,NNW,344,0.0,4.0,80,0.00,,,0.01,Wunderground v.1.15,2013-10-08 21:14:00,
2013-10-08 17:20:00,58.6,53.1,30.11,North,356,0.0,4.0,82,0.00,,,0.01,Wunderground v.1.15,2013-10-08 21:20:00,
2013-10-08 17:25:00,58.5,53.0,30.11,WNW,286,1.0,4.0,82,0.00,,,0.01,Wunderground v.1.15,2013-10-08 21:25:00,
2013-10-08 17:30:00,58.4,52.9,30.11,NW,323,1.0,1.0,82,0.00,,,0.01,Wunderground v.1.15,2013-10-08 21:30:00,
2013-10-08 17:35:00,58.3,52.8,30.11,North,350,1.0,4.0,82,0.00,,,0.01,Wunderground v.1.15,2013-10-08 21:35:00,
2013-10-08 17:44:00,58.0,52.5,30.11,WSW,252,0.0,4.0,82,0.00,,,0.01,Wunderground v.1.15,2013-10-08 21:44:00,
2013-10-08 17:50:00,57.9,52.4,30.11,WNW,296,0.0,4.0,82,0.00,,,0.01,Wunderground v.1.15,2013-10-08 21:50:00,
2013-10-08 17:55:00,57.8,52.7,30.11,WSW,241,0.0,4.0,83,0.00,,,0.01,Wunderground v.1.15,2013-10-08 21:55:00,
2013-10-08 18:00:00,57.7,52.6,30.12,West,262,0.0,4.0,83,0.00,,,0.01,Wunderground v.1.15,2013-10-08 22:00:00,
2013-10-08 18:09:00,57.4,52.3,30.12,WNW,292,0.0,4.0,83,0.00,,,0.01,Wunderground v.1.15,2013-10-08 22:09:00,
2013-10-08 18:14:00,57.3,52.2,30.12,WNW,290,0.0,4.0,83,0.00,,,0.01,Wunderground v.1.15,2013-10-08 22:14:00,
2013-10-08 18:20:00,57.2,52.4,30.12,WNW,290,0.0,4.0,84,0.00,,,0.01,Wunderground v.1.15,2013-10-08 22:20:00,
2013-10-08 18:25:00,57.0,51.9,30.12,WNW,290,0.0,4.0,83,0.00,,,0.01,Wunderground v.1.15,2013-10-08 22:25:00,
2013-10-08 18:30:00,56.9,52.1,30.12,WNW,290,0.0,4.0,84,0.00,,,0.01,Wunderground v.1.15,2013-10-08 22:30:00,
2013-10-08 18:40:00,56.6,52.1,30.12,WNW,290,0.0,4.0,85,0.00,,,0.01,Wunderground v.1.15,2013-10-08 22:40:00,
2013-10-08 18:45:00,56.5,52.4,30.12,WNW,290,0.0,4.0,86,0.00,,,0.01,Wunderground v.1.15,2013-10-08 22:45:00,
2013-10-08 18:50:00,56.4,51.9,30.12,WNW,290,0.0,4.0,85,0.00,,,0.01,Wunderground v.1.15,2013-10-08 22:50:00,
2013-10-08 18:55:00,56.4,51.9,30.12,NNW,338,1.0,4.0,85,0.00,,,0.01,Wunderground v.1.15,2013-10-08 22:55:00,
2013-10-08 19:04:00,56.3,52.2,30.12,NNW,338,0.0,4.0,86,0.00,,,0.01,Wunderground v.1.15,2013-10-08 23:04:00,
2013-10-08 19:10:00,56.2,51.7,30.12,NNW,338,0.0,4.0,85,0.00,,,0.01,Wunderground v.1.15,2013-10-08 23:10:00,
2013-10-08 19:15:00,56.1,51.7,30.13,NNW,338,0.0,4.0,85,0.00,,,0.01,Wunderground v.1.15,2013-10-08 23:15:00,
2013-10-08 19:20:00,56.0,51.9,30.13,NNW,338,0.0,4.0,86,0.00,,,0.01,Wunderground v.1.15,2013-10-08 23:20:00,
2013-10-08 19:25:00,56.0,51.9,30.13,NNW,338,0.0,4.0,86,0.00,,,0.01,Wunderground v.1.15,2013-10-08 23:25:00,
2013-10-08 19:34:00,55.9,51.8,30.12,NW,321,0.0,4.0,86,0.00,,,0.01,Wunderground v.1.15,2013-10-08 23:34:00,
2013-10-08 19:40:00,55.8,52.0,30.12,WNW,297,0.0,4.0,87,0.00,,,0.01,Wunderground v.1.15,2013-10-08 23:40:00,
2013-10-08 19:45:00,55.8,52.3,30.13,South,191,0.0,4.0,88,0.00,,,0.01,Wunderground v.1.15,2013-10-08 23:45:00,
2013-10-08 19:50:00,55.7,52.2,30.13,WNW,289,0.0,4.0,88,0.00,,,0.01,Wunderground v.1.15,2013-10-08 23:50:00,
2013-10-08 19:59:00,55.6,52.1,30.13,SW,221,0.0,4.0,88,0.00,,,0.01,Wunderground v.1.15,2013-10-08 23:59:00,
2013-10-08 20:04:00,55.5,52.0,30.13,North,349,0.0,4.0,88,0.00,,,0.01,Wunderground v.1.15,2013-10-09 00:04:00,
2013-10-08 20:10:00,55.4,52.2,30.13,SW,231,0.0,4.0,89,0.00,,,0.01,Wunderground v.1.15,2013-10-09 00:10:00,
2013-10-08 20:15:00,55.3,51.8,30.14,NW,309,0.0,4.0,88,0.00,,,0.01,Wunderground v.1.15,2013-10-09 00:15:00,
2013-10-08 20:20:00,55.3,52.1,30.14,NW,316,0.0,4.0,89,0.00,,,0.01,Wunderground v.1.15,2013-10-09 00:20:00,
2013-10-08 20:29:00,55.3,52.1,30.14,NW,316,0.0,4.0,89,0.00,,,0.01,Wunderground v.1.15,2013-10-09 00:29:00,
2013-10-08 20:34:00,55.3,52.1,30.14,NW,316,0.0,4.0,89,0.00,,,0.01,Wunderground v.1.15,2013-10-09 00:34:00,
2013-10-08 20:40:00,55.3,51.5,30.14,North,358,0.0,4.0,87,0.00,,,0.01,Wunderground v.1.15,2013-10-09 00:40:00,
2013-10-08 20:45:00,55.3,51.5,30.14,NNW,348,0.0,4.0,87,0.00,,,0.01,Wunderground v.1.15,2013-10-09 00:45:00,
2013-10-08 20:50:00,55.3,51.5,30.14,NW,313,0.0,4.0,87,0.00,,,0.01,Wunderground v.1.15,2013-10-09 00:50:00,
2013-10-08 20:59:00,55.4,51.3,30.14,North,352,1.0,1.0,86,0.00,,,0.01,Wunderground v.1.15,2013-10-09 00:59:00,
2013-10-08 21:05:00,55.5,51.4,30.14,North,351,0.0,4.0,86,0.00,,,0.01,Wunderground v.1.15,2013-10-09 01:05:00,
2013-10-08 21:10:00,55.4,51.0,30.14,North,353,0.0,4.0,85,0.00,,,0.01,Wunderground v.1.15,2013-10-09 01:10:00,
2013-10-08 21:15:00,55.4,51.3,30.14,NW,324,0.0,4.0,86,0.00,,,0.01,Wunderground v.1.15,2013-10-09 01:15:00,
2013-10-08 21:24:00,55.5,51.4,30.14,NW,314,1.0,4.0,86,0.00,,,0.01,Wunderground v.1.15,2013-10-09 01:24:00,
2013-10-08 21:30:00,55.4,51.6,30.15,WNW,301,0.0,4.0,87,0.00,,,0.01,Wunderground v.1.15,2013-10-09 01:30:00,
2013-10-08 21:35:00,55.3,51.5,30.15,WNW,294,0.0,4.0,87,0.00,,,0.01,Wunderground v.1.15,2013-10-09 01:35:00,
2013-10-08 21:40:00,55.3,51.2,30.15,NNW,343,1.0,4.0,86,0.00,,,0.01,Wunderground v.1.15,2013-10-09 01:40:00,
2013-10-08 21:45:00,55.3,51.2,30.15,NNW,333,1.0,4.0,86,0.00,,,0.01,Wunderground v.1.15,2013-10-09 01:45:00,
2013-10-08 21:54:00,55.3,51.5,30.15,West,259,0.0,4.0,87,0.00,,,0.01,Wunderground v.1.15,2013-10-09 01:54:00,
2013-10-08 22:00:00,55.3,50.9,30.15,NNW,327,0.0,4.0,85,0.00,,,0.01,Wunderground v.1.15,2013-10-09 02:00:00,
2013-10-08 22:05:00,55.3,51.5,30.15,NNW,328,0.0,4.0,87,0.00,,,0.01,Wunderground v.1.15,2013-10-09 02:05:00,
2013-10-08 22:10:00,55.3,51.5,30.15,NNW,347,0.0,4.0,87,0.00,,,0.01,Wunderground v.1.15,2013-10-09 02:10:00,
2013-10-08 22:19:00,55.4,51.0,30.15,WNW,300,1.0,4.0,85,0.00,,,0.01,Wunderground v.1.15,2013-10-09 02:19:00,
2013-10-08 22:24:00,55.4,51.0,30.15,ESE,103,1.0,4.0,85,0.00,,,0.01,Wunderground v.1.15,2013-10-09 02:24:00,
2013-10-08 22:30:00,55.4,51.0,30.15,North,359,1.0,1.0,85,0.00,,,0.01,Wunderground v.1.15,2013-10-09 02:30:00,
2013-10-08 22:35:00,55.4,51.0,30.15,North,359,0.0,4.0,85,0.00,,,0.01,Wunderground v.1.15,2013-10-09 02:35:00,
2013-10-08 22:40:00,55.4,51.0,30.15,NW,319,0.0,4.0,85,0.00,,,0.01,Wunderground v.1.15,2013-10-09 02:40:00,
2013-10-08 22:49:00,55.5,50.7,30.15,NNW,338,1.0,4.0,84,0.00,,,0.01,Wunderground v.1.15,2013-10-09 02:49:00,
2013-10-08 22:54:00,55.5,51.1,30.15,NNW,345,1.0,4.0,85,0.00,,,0.01,Wunderground v.1.15,2013-10-09 02:54:00,
2013-10-08 23:00:00,55.5,51.1,30.15,WNW,303,1.0,1.0,85,0.00,,,0.01,Wunderground v.1.15,2013-10-09 03:00:00,
2013-10-08 23:05:00,55.5,50.7,30.15,NW,306,1.0,4.0,84,0.00,,,0.01,Wunderground v.1.15,2013-10-09 03:05:00,
2013-10-08 23:14:00,55.5,51.1,30.15,WNW,301,1.0,4.0,85,0.00,,,0.01,Wunderground v.1.15,2013-10-09 03:14:00,
2013-10-08 23:20:00,55.6,51.2,30.15,NW,318,1.0,4.0,85,0.00,,,0.01,Wunderground v.1.15,2013-10-09 03:20:00,
2013-10-08 23:25:00,55.5,51.1,30.15,North,359,0.0,4.0,85,0.00,,,0.01,Wunderground v.1.15,2013-10-09 03:25:00,
2013-10-08 23:30:00,55.5,50.7,30.15,NE,42,0.0,4.0,84,0.00,,,0.01,Wunderground v.1.15,2013-10-09 03:30:00,
2013-10-08 23:39:00,55.6,51.5,30.15,NW,315,0.0,4.0,86,0.00,,,0.01,Wunderground v.1.15,2013-10-09 03:39:00,
2013-10-08 23:45:00,55.5,50.7,30.15,NNW,335,0.0,4.0,84,0.00,,,0.01,Wunderground v.1.15,2013-10-09 03:45:00,
2013-10-08 23:50:00,55.5,50.7,30.15,WSW,240,0.0,4.0,84,0.00,,,0.01,Wunderground v.1.15,2013-10-09 03:50:00,
2013-10-08 23:55:00,55.6,51.2,30.15,West,274,0.0,4.0,85,0.00,,,0.01,Wunderground v.1.15,2013-10-09 03:55:00,